Etusivu
METAR-TAF:

METAR-TAF

Lentoasemat :

Chongqing Jiangbein kansainvälinen lentoasema

Chongqing, Kiina

Leveyspiiri: 29-31N, Pituuspiiri: 106-29E, korkeus merenpinnasta: 351 m

Tämänhetkinen sää

Tämä raportti tehtiin 21 minuuttia sitten, kello 11.00 UTC
Tuuli 6 kn idästä
Lämpötila 27°C
Kosteus 45%
Ilmanpaine 1006 hPa
Näkyvyys 10 km tai enemmän
ei pilviä alle 1500 m:ssä eikä cumulonimbus-pilviä

METAR: ZUCK 291100Z 09003MPS CAVOK 27/14 Q1006 NOSIG

Aika: 19:21 (11:21 UTC)

Sääennuste

Tämä raportti tehtiin 8 tuntia ja 15 minuuttia sitten, kello 03.06 UTC
Ennuste voimassa 29. päivästä klo 06 UTC - 30. päivään klo 06 UTC
Tuuli 6 kn etelästä/kaakosta
Näkyvyys: 6000 m
Hajanaisia pilviä 3000 ft:n korkeudessa

TAF: ZUCK 290306Z 2906/3006 15003MPS 6000 SCT030 TX31/2908Z TN20/2922Z

Säähavainnot ja -ennusteet yli 4000 lentoasemalta (METAR- ja TAF-raportit).

Käytössä olevat sääasemat on merkitty karttaan keltaisilla ja punaisilla pisteillä.

Aseta hiiri pisteen päälle nähdäksesi sääaseman nimen.

Klikkaa sitten nähdäksesi säähavainnot ja -ennusteet.

Kartan vaihtaminen: klikkaa mustalla rastilla varustettuja vihreitä pisteitä, niin voit zoomata sisään; viivalla varustettua vihreää pistettä, niin voit zoomata ulos tai vihreitä nuolia, niin pääset viereisille kartoille.


METAR-TAF: